Texarkana Regional Webb Field Texarkana US
ICAO: KTXK
IATA: TXK
Category: Medium
Scheduled Services: Yes

Elevation: 390 ft
TransAlt. 18000 ft.

Airport Communications:
ATIS:120.2
FORT WORTH CNTR:123.925
CTAF:125.7
GND:121.7
JONESBORO RDO:122.45
TWR:125.7

KTXK Zoom In..

If you have problems with the map follow the link
https://www.worldairports.se/pages/airport.php?
ICAO=KTXK

Runways:

(A) RW 04 length 6601 ft width 144 ft
---- / hdg 40

(B) RW 13 length 5200 ft width 100 ft
---- / hdg 130

(C) RW 22 length 6601 ft width 144 ft
ILS 111.90 / hdg 220

(D) RW 31 length 5200 ft width 100 ft
---- / hdg 310

Location; KTXK
Day. 14 / Time. 17.53 Zulu
* Altimeter: 29.88
* Temperature: 11° c. 51.8°f.
* Wind from: KTX° Speed K kn.
Dewpoint: 07° c.
Visibility: 10 Statute Miles.
Clouds: Clear (automated report).

KTXK 141753Z 00000KT 10SM CLR 11/07 A2988 RMK AO2 SLP118 T01060072 10106 20028 50003


Wind From KTX°
Speed K kn.

 
 
jpsmedia worldairports.se 2019   terms of use